Time;durP1;ratioP1;P1;durP2;ratioP2;P2;SDS_P1;SDS_P2;PMS_P1;PMS_P2;Temp;Humidity;BMP_temperature;BMP_pressure;BME280_temperature;BME280_humidity;BME280_pressure;Samples;Min_cycle;Max_cycle;Signal;HPM_P1;HPM_P2
2021/10/14 00:01:50;;;;;;;10.95;5.50;;;12.80;98.10;;;;;;4770576;30;20082;-80
2021/10/14 00:04:16;;;;;;;10.98;5.18;;;12.90;98.30;;;;;;4771714;30;20116;-81
2021/10/14 00:06:43;;;;;;;12.77;5.57;;;12.90;98.20;;;;;;4763604;30;20052;-80
2021/10/14 00:09:09;;;;;;;11.02;5.07;;;12.80;98.20;;;;;;4754506;30;20082;-80
2021/10/14 00:11:34;;;;;;;8.80;5.63;;;12.90;98.30;;;;;;4772223;30;20489;-80
2021/10/14 00:14:00;;;;;;;11.52;5.57;;;12.90;98.20;;;;;;4758574;30;20070;-81
2021/10/14 00:16:25;;;;;;;9.20;5.00;;;12.90;98.30;;;;;;4770556;29;20051;-81
2021/10/14 00:18:51;;;;;;;9.30;5.00;;;12.90;98.20;;;;;;4771375;30;20138;-80
2021/10/14 00:21:17;;;;;;;10.02;4.88;;;12.90;98.20;;;;;;4768314;30;20051;-81
2021/10/14 00:23:42;;;;;;;9.38;5.18;;;12.90;98.20;;;;;;4759674;30;20040;-80
2021/10/14 00:26:08;;;;;;;9.77;5.38;;;12.90;98.10;;;;;;4766179;30;20048;-81
2021/10/14 00:28:34;;;;;;;6.63;4.18;;;12.80;98.10;;;;;;4771310;30;20079;-80
2021/10/14 00:31:00;;;;;;;8.93;4.68;;;12.80;98.00;;;;;;4771492;29;20043;-81
2021/10/14 00:33:25;;;;;;;10.10;5.07;;;12.80;97.90;;;;;;4753599;30;20052;-81
2021/10/14 00:35:51;;;;;;;9.07;4.65;;;12.80;97.90;;;;;;4759305;30;20458;-81
2021/10/14 00:38:16;;;;;;;8.50;4.75;;;12.80;97.80;;;;;;4754954;30;20509;-80
2021/10/14 00:40:45;;;;;;;8.52;5.30;;;12.80;97.70;;;;;;4753829;30;20090;-80
2021/10/14 00:43:11;;;;;;;7.53;3.30;;;12.80;97.90;;;;;;4754647;30;20067;-80
2021/10/14 00:45:37;;;;;;;6.75;3.47;;;12.80;97.70;;;;;;4753440;30;20575;-80
2021/10/14 00:48:02;;;;;;;8.90;3.92;;;12.70;97.50;;;;;;4768838;30;20059;-81
2021/10/14 00:50:29;;;;;;;8.05;4.70;;;12.80;97.40;;;;;;4768267;30;20058;-81
2021/10/14 00:52:54;;;;;;;7.45;3.80;;;12.80;97.80;;;;;;4769410;30;20054;-80
2021/10/14 00:55:21;;;;;;;10.75;4.63;;;12.70;97.70;;;;;;4771417;30;20130;-80
2021/10/14 00:57:49;;;;;;;7.80;3.80;;;12.70;97.70;;;;;;4753947;30;20067;-80
2021/10/14 01:00:15;;;;;;;8.63;4.40;;;12.70;97.60;;;;;;4765337;29;20100;-80
2021/10/14 01:02:41;;;;;;;10.55;4.47;;;12.70;97.70;;;;;;4782588;29;20048;-80
2021/10/14 01:05:07;;;;;;;8.82;4.30;;;12.70;97.70;;;;;;4787041;30;20051;-81
2021/10/14 01:07:32;;;;;;;10.18;4.13;;;12.70;97.70;;;;;;4765208;30;20043;-81
2021/10/14 01:15:11;;;;;;;;;;;;;;;;;;;;;
2021/10/14 01:18:53;;;;;;;;;;;;;;;;;;;;;
2021/10/14 01:25:19;;;;;;;6.57;2.97;;;12.60;97.40;;;;;;4700078;30;20053;-81
2021/10/14 01:27:51;;;;;;;6.30;3.25;;;12.60;97.50;;;;;;4685043;30;20050;-80
2021/10/14 01:30:58;;;;;;;;;;;;;;;;;;;;;
2021/10/14 01:34:05;;;;;;;6.90;2.60;;;12.60;97.40;;;;;;4749597;29;20053;-80
2021/10/14 01:37:18;;;;;;;5.32;2.65;;;12.60;97.20;;;;;;4757342;30;20489;-80
2021/10/14 01:40:13;;;;;;;8.45;3.33;;;12.50;97.00;;;;;;4760156;29;20047;-81
2021/10/14 01:42:42;;;;;;;9.65;3.53;;;12.50;97.20;;;;;;4769331;30;20070;-80
2021/10/14 01:45:08;;;;;;;6.10;2.78;;;12.50;97.30;;;;;;4756764;30;20425;-81
2021/10/14 01:47:35;;;;;;;7.97;3.10;;;12.60;97.20;;;;;;4757394;30;20126;-81
2021/10/14 01:50:05;;;;;;;7.68;3.05;;;12.60;97.20;;;;;;4755763;30;20047;-81
2021/10/14 01:52:53;;;;;;;9.10;4.15;;;12.60;97.10;;;;;;4768220;30;20508;-81
2021/10/14 01:55:18;;;;;;;7.88;3.42;;;12.60;97.40;;;;;;4769159;30;20050;-81
2021/10/14 01:57:53;;;;;;;7.68;3.38;;;12.60;97.50;;;;;;4765607;30;20039;-80
2021/10/14 02:00:53;;;;;;;9.95;3.28;;;12.60;97.60;;;;;;4757105;30;20052;-81
2021/10/14 02:03:54;;;;;;;6.15;3.28;;;12.60;97.50;;;;;;4771571;30;20112;-81
2021/10/14 02:06:19;;;;;;;11.85;3.72;;;12.60;97.60;;;;;;4757097;30;20067;-81
2021/10/14 02:08:45;;;;;;;6.25;3.00;;;12.60;97.70;;;;;;4755984;30;20056;-80
2021/10/14 02:11:11;;;;;;;8.30;3.67;;;12.60;97.70;;;;;;4755790;30;20051;-80
2021/10/14 02:13:40;;;;;;;7.30;3.05;;;12.60;97.80;;;;;;4761430;30;20043;-80
2021/10/14 02:16:37;;;;;;;10.73;3.42;;;12.60;97.80;;;;;;4759180;30;20063;-80
2021/10/14 02:19:03;;;;;;;12.45;3.33;;;12.70;97.90;;;;;;4761819;30;20056;-80
2021/10/14 02:21:35;;;;;;;10.05;3.30;;;12.70;98.10;;;;;;4759772;29;20051;-79
2021/10/14 02:24:18;;;;;;;8.68;3.22;;;12.70;98.30;;;;;;4780256;30;20398;-80
2021/10/14 02:26:44;;;;;;;8.45;3.33;;;12.70;98.30;;;;;;4755560;30;20054;-80
2021/10/14 02:29:12;;;;;;;9.75;3.30;;;12.70;98.50;;;;;;4764238;30;20393;-80
2021/10/14 02:31:39;;;;;;;10.25;3.08;;;12.70;98.30;;;;;;4772514;29;20528;-80
2021/10/14 02:34:05;;;;;;;8.65;2.63;;;12.70;98.40;;;;;;4766207;30;20048;-80
2021/10/14 02:36:31;;;;;;;7.07;2.35;;;12.70;98.40;;;;;;4770850;30;20051;-80
2021/10/14 02:38:57;;;;;;;7.40;2.50;;;12.70;98.50;;;;;;4770775;30;20040;-80
2021/10/14 02:41:22;;;;;;;7.55;2.53;;;12.70;98.10;;;;;;4770738;30;20051;-80
2021/10/14 02:48:21;;;;;;;12.80;2.92;;;12.70;98.30;;;;;;4770365;30;20062;-80
2021/10/14 02:51:04;;;;;;;6.32;2.10;;;12.70;98.40;;;;;;4736645;30;20539;-79
2021/10/14 02:53:45;;;;;;;11.35;2.20;;;12.70;98.40;;;;;;4737097;30;20468;-80
2021/10/14 02:56:20;;;;;;;9.05;2.60;;;12.70;98.20;;;;;;4742619;30;20059;-80
2021/10/14 02:59:03;;;;;;;4.30;2.13;;;12.70;98.50;;;;;;4749542;30;20056;-80
2021/10/14 03:05:17;;;;;;;6.88;2.10;;;12.70;98.30;;;;;;4755877;30;20497;-80
2021/10/14 03:07:53;;;;;;;5.90;2.40;;;12.70;98.20;;;;;;4753414;30;20063;-80
2021/10/14 03:10:21;;;;;;;7.22;2.38;;;12.70;98.20;;;;;;4751244;30;20052;-80
2021/10/14 03:12:53;;;;;;;6.25;2.22;;;12.70;98.40;;;;;;4736395;30;20135;-80
2021/10/14 03:15:18;;;;;;;6.68;2.33;;;12.70;98.40;;;;;;4742542;30;20048;-79
2021/10/14 03:17:44;;;;;;;6.95;2.50;;;12.70;98.50;;;;;;4743130;30;20059;-80
2021/10/14 03:20:29;;;;;;;4.78;1.95;;;12.70;98.50;;;;;;4755317;30;20451;-80
2021/10/14 03:23:55;;;;;;;7.03;2.90;;;12.70;98.40;;;;;;4770021;30;20059;-80
2021/10/14 03:26:56;;;;;;;7.32;2.65;;;12.70;98.40;;;;;;4783733;29;20067;-81
2021/10/14 03:29:34;;;;;;;5.95;2.47;;;12.70;98.50;;;;;;4755212;30;20074;-80
2021/10/14 03:32:39;;;;;;;6.72;2.10;;;12.70;98.50;;;;;;4754585;30;20056;-80
2021/10/14 03:35:13;;;;;;;;;;;12.70;98.40;;;;;;4762488;30;20084;-80
2021/10/14 03:37:39;;;;;;;4.32;1.88;;;12.60;98.30;;;;;;4772550;30;19972;-80
2021/10/14 03:44:05;;;;;;;4.60;1.90;;;12.60;98.20;;;;;;4697598;30;20136;-81
2021/10/14 03:47:09;;;;;;;4.90;2.30;;;12.60;98.10;;;;;;4670268;30;20056;-81
2021/10/14 03:49:35;;;;;;;;;;;12.60;98.10;;;;;;4683482;30;20113;-80
2021/10/14 03:52:04;;;;;;;6.35;2.15;;;12.50;98.20;;;;;;4683988;30;20405;-80
2021/10/14 03:54:29;;;;;;;5.70;2.60;;;12.50;98.40;;;;;;4707398;30;20060;-81
2021/10/14 03:56:55;;;;;;;4.38;2.10;;;12.60;98.50;;;;;;4718027;30;20122;-81
2021/10/14 03:59:20;;;;;;;4.03;1.95;;;12.60;98.60;;;;;;4720271;30;20052;-80
2021/10/14 04:01:46;;;;;;;5.10;2.15;;;12.60;98.40;;;;;;4735479;30;20147;-80
2021/10/14 04:04:11;;;;;;;5.47;2.00;;;12.60;98.40;;;;;;4733749;30;20060;-80
2021/10/14 04:06:40;;;;;;;7.10;2.38;;;12.60;98.30;;;;;;4736418;30;20114;-81
2021/10/14 04:09:05;;;;;;;5.25;2.33;;;12.60;98.40;;;;;;4727040;30;20152;-81
2021/10/14 04:11:31;;;;;;;4.00;2.30;;;12.60;98.40;;;;;;4719795;30;20178;-80
2021/10/14 04:13:56;;;;;;;7.07;3.30;;;12.60;98.30;;;;;;4748278;30;20079;-80
2021/10/14 04:16:25;;;;;;;8.20;4.47;;;12.60;98.40;;;;;;4770813;30;20054;-80
2021/10/14 04:18:50;;;;;;;5.53;3.10;;;12.60;98.60;;;;;;4754126;30;20078;-80
2021/10/14 04:21:16;;;;;;;9.68;4.50;;;12.70;98.60;;;;;;4760176;30;20051;-80
2021/10/14 04:23:43;;;;;;;11.27;4.97;;;12.70;98.70;;;;;;4755337;30;20055;-81
2021/10/14 04:26:11;;;;;;;8.52;4.32;;;12.70;98.90;;;;;;4763177;30;20455;-80
2021/10/14 04:28:37;;;;;;;9.07;5.30;;;12.70;98.90;;;;;;4754034;30;20079;-80
2021/10/14 04:31:03;;;;;;;7.05;3.22;;;12.70;99.00;;;;;;4766018;30;20130;-81
2021/10/14 04:33:29;;;;;;;8.40;4.78;;;12.70;98.90;;;;;;4763846;29;20048;-80
2021/10/14 04:35:55;;;;;;;9.82;5.72;;;12.70;98.90;;;;;;4778369;30;20059;-81
2021/10/14 04:38:21;;;;;;;10.98;5.75;;;12.70;98.90;;;;;;4782374;29;20042;-80
2021/10/14 04:40:47;;;;;;;11.48;6.32;;;12.80;99.20;;;;;;4781905;29;20137;-81
2021/10/14 04:43:13;;;;;;;6.57;3.88;;;12.80;99.30;;;;;;4792004;29;20078;-81
2021/10/14 04:45:38;;;;;;;14.18;6.43;;;12.80;99.10;;;;;;4790738;29;20043;-80
2021/10/14 04:48:04;;;;;;;10.10;6.25;;;12.80;99.10;;;;;;4792631;29;20054;-80
2021/10/14 04:50:30;;;;;;;8.00;4.57;;;12.80;99.20;;;;;;4776277;29;20047;-81
2021/10/14 04:52:55;;;;;;;12.73;6.00;;;12.80;99.00;;;;;;4781538;29;20051;-80
2021/10/14 04:55:21;;;;;;;10.65;5.30;;;12.80;99.10;;;;;;4791399;29;20046;-80
2021/10/14 04:57:46;;;;;;;10.77;5.30;;;12.90;99.10;;;;;;4790414;29;20047;-81
2021/10/14 05:00:12;;;;;;;10.73;5.32;;;12.90;99.00;;;;;;4783942;29;20188;-80
2021/10/14 05:02:38;;;;;;;10.95;5.50;;;12.80;99.00;;;;;;4789802;29;20141;-80
2021/10/14 05:05:04;;;;;;;9.82;5.85;;;12.90;99.00;;;;;;4791839;29;20563;-79
2021/10/14 05:07:29;;;;;;;14.48;6.97;;;12.80;99.00;;;;;;4790984;29;20050;-81
2021/10/14 05:09:58;;;;;;;12.95;6.53;;;12.90;99.00;;;;;;4791989;29;20073;-79
2021/10/14 05:12:23;;;;;;;14.82;7.13;;;12.90;99.10;;;;;;4783083;29;20050;-81
2021/10/14 05:14:49;;;;;;;13.25;6.68;;;12.90;99.20;;;;;;4763475;30;20108;-81
2021/10/14 05:17:14;;;;;;;14.63;7.07;;;12.90;99.30;;;;;;4775028;30;20048;-80
2021/10/14 05:19:40;;;;;;;13.82;7.05;;;12.90;99.20;;;;;;4773555;30;20051;-80
2021/10/14 05:22:06;;;;;;;11.25;6.13;;;12.90;99.30;;;;;;4759828;30;20062;-81
2021/10/14 05:24:31;;;;;;;12.40;6.18;;;12.90;99.30;;;;;;4771993;30;20139;-80
2021/10/14 05:26:57;;;;;;;11.70;6.70;;;12.90;99.30;;;;;;4771952;29;20450;-80
2021/10/14 05:29:25;;;;;;;9.90;6.28;;;13.00;99.30;;;;;;4775185;29;20066;-80
2021/10/14 05:31:51;;;;;;;10.98;6.05;;;12.90;99.40;;;;;;4773325;29;20109;-80
2021/10/14 05:34:17;;;;;;;12.13;6.68;;;12.90;99.30;;;;;;4762422;29;20051;-80
2021/10/14 05:36:42;;;;;;;12.23;6.07;;;12.90;99.30;;;;;;4771337;30;20138;-80
2021/10/14 05:39:08;;;;;;;10.55;5.72;;;13.00;99.30;;;;;;4773716;30;20051;-80
2021/10/14 05:41:33;;;;;;;10.82;5.93;;;13.00;99.20;;;;;;4761569;30;20055;-80
2021/10/14 05:44:06;;;;;;;13.43;7.30;;;13.00;99.20;;;;;;4764580;30;20055;-80
2021/10/14 05:46:35;;;;;;;;;;;12.90;99.10;;;;;;4772884;30;20120;-79
2021/10/14 05:49:10;;;;;;;13.70;6.85;;;12.90;99.10;;;;;;4773373;30;20333;-80
2021/10/14 05:51:42;;;;;;;11.30;7.40;;;12.90;99.30;;;;;;4760577;30;20060;-80
2021/10/14 05:54:13;;;;;;;12.20;5.88;;;12.90;99.40;;;;;;4756525;30;20055;-80
2021/10/14 05:56:48;;;;;;;11.43;5.82;;;13.00;99.20;;;;;;4771034;30;20512;-80
2021/10/14 05:59:14;;;;;;;14.15;7.30;;;13.00;99.10;;;;;;4773688;29;20043;-80
2021/10/14 06:01:39;;;;;;;10.35;6.75;;;13.00;99.20;;;;;;4776600;29;20501;-80
2021/10/14 06:04:08;;;;;;;17.13;8.23;;;13.00;99.30;;;;;;4770705;30;20046;-80
2021/10/14 06:06:40;;;;;;;14.68;8.45;;;13.00;99.40;;;;;;4766026;30;20417;-80
2021/10/14 06:09:06;;;;;;;14.00;8.15;;;13.00;99.50;;;;;;4770524;30;20154;-80
2021/10/14 06:11:31;;;;;;;20.50;9.25;;;13.00;99.50;;;;;;4760014;30;20164;-80
2021/10/14 06:13:58;;;;;;;12.93;8.35;;;13.00;99.60;;;;;;4769543;30;20055;-81
2021/10/14 06:23:51;;;;;;;13.88;9.48;;;13.00;99.60;;;;;;4771555;30;20086;-82
2021/10/14 06:27:17;;;;;;;18.17;10.48;;;13.00;99.60;;;;;;4754020;30;20067;-81
2021/10/14 06:37:34;;;;;;;19.42;9.80;;;13.00;99.60;;;;;;4712497;30;20112;-81
2021/10/14 06:51:56;;;;;;;18.20;9.73;;;13.00;99.60;;;;;;4632032;30;20509;-81
2021/10/14 06:55:43;;;;;;;16.92;9.82;;;13.10;99.50;;;;;;4643770;30;20058;-82
2021/10/14 06:59:34;;;;;;;;;;;;;;;;;;;;;
2021/10/14 07:02:57;;;;;;;14.45;9.18;;;13.00;99.40;;;;;;4559349;31;20056;-81
2021/10/14 07:05:22;;;;;;;17.15;10.10;;;13.00;99.40;;;;;;4603785;30;20043;-82
2021/10/14 07:07:48;;;;;;;15.60;9.63;;;13.00;99.50;;;;;;4682347;30;20502;-82
2021/10/14 07:10:15;;;;;;;20.02;10.65;;;13.00;99.50;;;;;;4738703;30;20048;-82
2021/10/14 07:12:42;;;;;;;16.35;9.45;;;13.10;99.60;;;;;;4745855;30;20059;-82
2021/10/14 07:22:33;;;;;;;14.45;8.68;;;13.00;99.30;;;;;;4671665;30;20047;-82
2021/10/14 07:25:43;;;;;;;15.88;8.43;;;13.00;99.30;;;;;;4704376;30;20416;-81
2021/10/14 07:34:21;;;;;;;16.50;8.48;;;13.00;98.90;;;;;;4997038;24;20190;-81
2021/10/14 07:36:47;;;;;;;16.65;8.10;;;13.00;99.00;;;;;;4778781;29;20138;-81
2021/10/14 07:39:12;;;;;;;15.63;8.52;;;13.00;98.90;;;;;;4772774;30;20062;-82
2021/10/14 07:41:38;;;;;;;14.23;8.32;;;13.00;98.90;;;;;;4774544;29;20055;-82
2021/10/14 07:44:06;;;;;;;16.90;8.77;;;13.00;98.80;;;;;;4780709;29;20416;-81
2021/10/14 07:46:31;;;;;;;15.32;8.93;;;13.00;98.70;;;;;;4787421;29;20133;-82
2021/10/14 07:48:57;;;;;;;15.52;8.60;;;13.00;98.60;;;;;;4781393;29;20135;-80
2021/10/14 07:51:23;;;;;;;14.70;8.02;;;13.00;98.50;;;;;;4778090;29;20103;-80
2021/10/14 07:53:48;;;;;;;12.68;8.25;;;13.00;98.30;;;;;;4785342;29;20392;-81
2021/10/14 07:56:14;;;;;;;15.05;9.00;;;13.00;98.20;;;;;;4778267;29;20108;-80
2021/10/14 07:58:39;;;;;;;15.95;8.55;;;13.00;98.20;;;;;;4780568;29;20043;-81
2021/10/14 08:01:10;;;;;;;15.05;8.18;;;13.00;98.10;;;;;;4786153;29;20050;-81
2021/10/14 08:03:36;;;;;;;20.15;8.88;;;13.00;98.10;;;;;;4786885;29;20054;-81
2021/10/14 08:06:02;;;;;;;14.93;8.13;;;13.00;98.00;;;;;;4773635;29;20043;-81
2021/10/14 08:08:27;;;;;;;13.70;8.35;;;13.00;98.00;;;;;;4787200;29;20072;-81
2021/10/14 08:10:54;;;;;;;14.38;8.15;;;13.00;98.00;;;;;;4782006;29;20085;-81
2021/10/14 08:13:19;;;;;;;17.20;8.65;;;13.00;98.30;;;;;;4779250;29;20051;-81
2021/10/14 08:15:49;;;;;;;15.02;7.75;;;13.00;97.90;;;;;;4781382;29;20441;-81
2021/10/14 08:18:17;;;;;;;18.77;7.80;;;13.00;97.80;;;;;;4783875;29;20043;-81
2021/10/14 08:20:43;;;;;;;17.00;7.05;;;13.10;97.80;;;;;;4777537;30;20198;-81
2021/10/14 08:23:08;;;;;;;17.52;7.25;;;13.00;97.70;;;;;;4778810;29;20111;-81
2021/10/14 08:25:34;;;;;;;16.50;6.55;;;13.10;97.70;;;;;;4781799;29;20086;-82
2021/10/14 08:28:00;;;;;;;14.77;6.60;;;13.00;97.90;;;;;;4787305;29;20050;-81
2021/10/14 08:30:28;;;;;;;15.60;6.80;;;13.00;97.40;;;;;;4785386;29;20416;-82
2021/10/14 08:32:54;;;;;;;14.13;6.93;;;13.10;97.40;;;;;;4775734;29;20623;-81
2021/10/14 08:35:26;;;;;;;11.60;7.13;;;13.10;97.30;;;;;;4768347;30;20094;-81
2021/10/14 08:40:59;;;;;;;14.20;7.55;;;13.10;97.40;;;;;;4754889;30;20059;-81
2021/10/14 08:43:29;;;;;;;13.52;7.38;;;13.10;97.40;;;;;;4772026;30;20142;-81
2021/10/14 08:46:15;;;;;;;17.30;6.88;;;13.10;97.40;;;;;;4770554;29;20159;-81
2021/10/14 08:48:50;;;;;;;15.52;7.15;;;13.10;97.40;;;;;;4776536;30;20098;-81
2021/10/14 08:51:54;;;;;;;13.30;7.57;;;13.10;97.30;;;;;;4777104;30;20407;-81
2021/10/14 08:54:52;;;;;;;12.57;6.47;;;13.10;97.30;;;;;;4753144;30;20056;-81
2021/10/14 08:57:20;;;;;;;13.13;6.50;;;13.10;97.20;;;;;;4753140;30;20135;-81
2021/10/14 09:03:30;;;;;;;16.90;6.65;;;13.20;97.10;;;;;;4734705;30;20048;-81
2021/10/14 09:06:20;;;;;;;17.50;6.55;;;13.20;97.20;;;;;;4769192;29;20150;-82
2021/10/14 09:08:54;;;;;;;10.48;6.13;;;13.20;97.00;;;;;;4781710;29;20046;-81
2021/10/14 09:11:51;;;;;;;9.95;5.75;;;13.30;97.00;;;;;;4786318;29;20047;-81
2021/10/14 09:15:20;;;;;;;10.07;5.95;;;13.30;96.90;;;;;;4779561;29;20054;-81
2021/10/14 09:22:16;;;;;;;13.82;6.32;;;13.40;96.60;;;;;;4748286;30;20611;-80
2021/10/14 09:25:03;;;;;;;10.10;6.22;;;13.50;96.70;;;;;;4702339;30;20151;-80
2021/10/14 09:28:18;;;;;;;15.32;5.97;;;13.50;96.60;;;;;;4743297;30;20064;-81
2021/10/14 09:31:15;;;;;;;10.05;5.60;;;13.60;96.40;;;;;;4739407;30;20044;-81
2021/10/14 09:34:38;;;;;;;10.15;5.40;;;13.70;96.20;;;;;;4727322;30;20056;-82
2021/10/14 09:40:42;;;;;;;11.00;6.28;;;13.70;96.00;;;;;;4702430;30;20057;-80
2021/10/14 09:46:56;;;;;;;13.88;6.30;;;13.80;95.90;;;;;;4713498;30;20057;-81
2021/10/14 09:53:14;;;;;;;11.07;5.80;;;13.80;95.60;;;;;;4762844;30;20046;-82
2021/10/14 09:55:43;;;;;;;14.10;5.93;;;13.90;95.80;;;;;;4753645;30;20048;-83
2021/10/14 09:58:09;;;;;;;11.23;6.40;;;13.90;95.70;;;;;;4774344;29;20062;-82
2021/10/14 10:16:06;;;;;;;11.80;5.70;;;14.10;95.40;;;;;;4596883;31;20087;-84
2021/10/14 10:26:05;;;;;;;10.57;5.78;;;14.20;95.20;;;;;;4668252;30;20132;-85
2021/10/14 10:32:38;;;;;;;;;;;;;;;;;;;;;
2021/10/14 10:43:54;;;;;;;;;;;;;;;;;;;;;
2021/10/14 10:47:16;;;;;;;;;;;;;;;;;;;;;
2021/10/14 10:50:04;;;;;;;7.20;3.55;;;14.30;93.60;;;;;;4621079;30;20158;-82
2021/10/14 10:53:21;;;;;;;8.35;3.28;;;14.30;93.50;;;;;;4690492;30;20073;-83
2021/10/14 10:56:45;;;;;;;6.65;2.90;;;14.30;93.10;;;;;;4681893;30;20103;-82
2021/10/14 11:02:28;;;;;;;9.02;3.13;;;14.40;92.80;;;;;;4673890;30;20053;-81
2021/10/14 11:05:31;;;;;;;;;;;;;;;;;;;;;
2021/10/14 11:19:05;;;;;;;8.25;3.10;;;14.50;92.50;;;;;;5348990;24;20054;-82
2021/10/14 11:21:30;;;;;;;9.23;2.95;;;14.50;92.50;;;;;;4803713;29;21514;-82
2021/10/14 11:23:58;;;;;;;7.47;2.80;;;14.60;92.30;;;;;;4803153;29;20524;-83
2021/10/14 11:26:35;;;;;;;7.68;3.13;;;14.60;92.50;;;;;;4810814;29;20054;-82
2021/10/14 11:29:01;;;;;;;9.32;3.15;;;14.60;92.40;;;;;;4802056;29;20094;-82
2021/10/14 11:31:29;;;;;;;8.48;3.20;;;14.60;92.20;;;;;;4799774;29;20054;-82
2021/10/14 11:34:02;;;;;;;8.80;3.20;;;14.70;92.00;;;;;;4821729;29;20047;-82
2021/10/14 11:36:28;;;;;;;8.68;3.28;;;14.70;91.60;;;;;;4815150;29;20042;-86
2021/10/14 11:39:08;;;;;;;8.45;3.20;;;14.70;91.40;;;;;;4817140;29;20044;-82
2021/10/14 11:41:34;;;;;;;8.80;3.45;;;14.80;91.30;;;;;;4822127;29;20493;-83
2021/10/14 11:44:06;;;;;;;6.47;3.20;;;14.80;91.30;;;;;;4807783;29;20046;-82
2021/10/14 11:46:34;;;;;;;13.25;3.85;;;14.80;91.20;;;;;;4811736;29;20496;-82
2021/10/14 11:49:03;;;;;;;12.02;3.53;;;14.90;91.30;;;;;;4792969;29;20046;-82
2021/10/14 11:51:30;;;;;;;8.52;3.60;;;15.00;91.30;;;;;;4809927;29;20058;-83
2021/10/14 11:54:11;;;;;;;10.70;3.60;;;15.00;91.10;;;;;;4818489;29;20038;-82
2021/10/14 11:56:50;;;;;;;7.53;3.60;;;15.00;91.00;;;;;;4805437;29;20088;-83
2021/10/14 11:59:18;;;;;;;8.13;3.65;;;15.10;91.00;;;;;;4797842;29;20137;-83
2021/10/14 12:02:05;;;;;;;10.95;3.72;;;15.10;90.90;;;;;;4799522;29;20549;-83
2021/10/14 12:04:39;;;;;;;8.23;3.20;;;15.10;90.60;;;;;;4792467;29;20100;-84
2021/10/14 12:07:05;;;;;;;12.10;4.13;;;15.10;90.80;;;;;;4806505;29;20103;-83
2021/10/14 12:09:31;;;;;;;10.18;3.95;;;15.10;90.90;;;;;;4807196;29;20066;-84
2021/10/14 12:11:58;;;;;;;8.70;3.80;;;15.10;90.80;;;;;;4805179;29;20057;-84
2021/10/14 12:14:25;;;;;;;7.55;3.55;;;15.10;90.90;;;;;;4795550;29;20079;-85
2021/10/14 12:17:11;;;;;;;11.15;3.90;;;15.20;90.80;;;;;;4792712;29;20055;-84
2021/10/14 12:19:42;;;;;;;8.68;3.75;;;15.10;90.80;;;;;;4789657;29;20058;-85
2021/10/14 12:22:09;;;;;;;12.07;3.70;;;15.20;91.00;;;;;;4793257;29;20047;-87
2021/10/14 12:24:56;;;;;;;11.50;4.28;;;15.20;91.00;;;;;;4801474;29;20074;-87
2021/10/14 12:27:24;;;;;;;13.20;4.20;;;15.20;90.90;;;;;;4796472;29;20057;-85
2021/10/14 12:29:50;;;;;;;9.20;3.55;;;15.20;91.20;;;;;;4800097;29;20445;-84
2021/10/14 12:32:18;;;;;;;12.07;4.13;;;15.20;91.00;;;;;;4802757;29;20043;-84
2021/10/14 12:34:56;;;;;;;10.05;3.65;;;15.20;91.00;;;;;;4800497;29;20122;-86
2021/10/14 12:37:33;;;;;;;9.45;3.97;;;15.20;90.90;;;;;;4791168;29;20138;-85
2021/10/14 12:40:14;;;;;;;8.95;3.97;;;15.20;91.00;;;;;;4807670;29;20054;-85
2021/10/14 12:45:28;;;;;;;7.68;4.10;;;15.20;91.20;;;;;;4823825;29;20051;-86
2021/10/14 12:48:08;;;;;;;9.95;4.13;;;15.20;91.30;;;;;;4807124;29;20054;-86
2021/10/14 12:53:57;;;;;;;10.35;3.92;;;15.20;91.10;;;;;;4798271;29;20125;-85
2021/10/14 12:56:36;;;;;;;8.88;3.13;;;15.10;91.10;;;;;;4795462;29;20133;-85
2021/10/14 12:59:05;;;;;;;8.63;2.78;;;15.10;91.00;;;;;;4789766;29;20451;-86
2021/10/14 13:01:31;;;;;;;7.13;3.20;;;15.10;90.90;;;;;;4792650;29;20047;-85
2021/10/14 13:03:57;;;;;;;8.45;2.90;;;15.20;90.90;;;;;;4792944;29;20058;-87
2021/10/14 13:06:23;;;;;;;9.82;3.35;;;15.10;90.60;;;;;;4793639;29;20054;-86
2021/10/14 13:08:49;;;;;;;8.48;2.85;;;15.10;90.50;;;;;;4793270;29;20086;-89
2021/10/14 13:11:17;;;;;;;9.48;3.08;;;15.10;90.40;;;;;;4808532;29;20093;-85
2021/10/14 13:13:44;;;;;;;10.77;3.45;;;15.10;90.80;;;;;;4792595;29;20568;-86
2021/10/14 13:16:10;;;;;;;11.27;3.58;;;15.10;90.60;;;;;;4802668;29;20058;-86
2021/10/14 13:18:37;;;;;;;7.78;2.80;;;15.10;90.50;;;;;;4791573;29;20054;-85
2021/10/14 13:21:06;;;;;;;8.23;3.40;;;15.10;90.60;;;;;;4825389;29;20054;-84
2021/10/14 13:23:32;;;;;;;10.20;3.25;;;15.10;90.60;;;;;;4803482;29;20050;-85
2021/10/14 13:25:59;;;;;;;9.50;2.95;;;15.10;90.70;;;;;;4792837;29;20047;-85
2021/10/14 13:28:31;;;;;;;9.40;3.03;;;15.10;90.90;;;;;;4793112;29;20054;-84
2021/10/14 13:31:05;;;;;;;11.20;3.25;;;15.10;90.80;;;;;;4794357;29;20054;-85
2021/10/14 13:33:32;;;;;;;8.63;3.15;;;15.10;90.90;;;;;;4796778;29;20046;-84
2021/10/14 13:36:02;;;;;;;10.25;3.63;;;15.10;91.10;;;;;;4794757;29;20046;-85
2021/10/14 13:38:28;;;;;;;11.90;3.42;;;15.10;91.40;;;;;;4798296;29;20050;-84
2021/10/14 13:40:57;;;;;;;9.15;3.03;;;15.10;91.20;;;;;;4796391;29;20415;-85
2021/10/14 13:43:28;;;;;;;11.70;3.42;;;15.10;91.20;;;;;;4793854;29;20051;-84
2021/10/14 13:45:54;;;;;;;9.02;3.25;;;15.10;91.30;;;;;;4804055;29;20050;-84
2021/10/14 13:48:19;;;;;;;10.43;3.28;;;15.10;91.40;;;;;;4808448;29;20046;-85
2021/10/14 13:50:47;;;;;;;8.30;3.35;;;15.10;91.30;;;;;;4807027;29;20099;-85
2021/10/14 13:53:13;;;;;;;8.00;3.35;;;15.00;91.40;;;;;;4805559;29;20047;-86
2021/10/14 13:55:43;;;;;;;7.90;3.35;;;15.00;91.60;;;;;;4792226;29;20539;-85
2021/10/14 13:58:09;;;;;;;10.93;3.42;;;15.00;91.60;;;;;;4793347;29;20134;-85
2021/10/14 14:00:37;;;;;;;13.32;3.72;;;15.00;91.70;;;;;;4808480;29;20051;-85
2021/10/14 14:03:03;;;;;;;8.85;3.78;;;15.00;91.70;;;;;;4804383;29;20057;-86
2021/10/14 14:05:29;;;;;;;9.00;3.70;;;15.00;91.90;;;;;;4792209;29;20133;-86
2021/10/14 14:07:55;;;;;;;9.15;4.00;;;15.00;92.10;;;;;;4794337;29;20083;-87
2021/10/14 14:10:20;;;;;;;10.52;4.85;;;15.10;92.20;;;;;;4809011;29;20058;-87
2021/10/14 14:12:46;;;;;;;10.32;4.65;;;15.10;92.00;;;;;;4800464;29;20073;-86
2021/10/14 14:15:13;;;;;;;12.27;4.90;;;15.00;91.80;;;;;;4803852;29;20055;-86
2021/10/14 14:17:39;;;;;;;8.65;4.95;;;15.00;91.80;;;;;;4790590;29;20100;-86
2021/10/14 14:20:05;;;;;;;10.45;5.05;;;15.10;91.70;;;;;;4795363;29;20062;-87
2021/10/14 14:22:31;;;;;;;11.95;5.07;;;15.10;91.60;;;;;;4818328;29;20054;-87
2021/10/14 14:24:56;;;;;;;10.18;5.63;;;15.00;91.50;;;;;;4804852;29;20046;-86
2021/10/14 14:27:22;;;;;;;11.68;5.72;;;15.00;91.50;;;;;;4791106;29;20084;-81
2021/10/14 14:29:47;;;;;;;10.32;5.43;;;15.00;91.50;;;;;;4794286;29;20051;-86
2021/10/14 14:32:13;;;;;;;10.68;5.45;;;15.00;91.60;;;;;;4791207;29;20453;-84
2021/10/14 14:34:40;;;;;;;9.35;4.38;;;15.00;91.60;;;;;;4793623;29;20046;-84
2021/10/14 14:37:09;;;;;;;12.43;4.70;;;15.00;91.40;;;;;;4800135;29;20058;-83
2021/10/14 14:39:39;;;;;;;9.75;4.28;;;15.00;91.30;;;;;;4806854;29;20085;-82
2021/10/14 14:42:06;;;;;;;10.80;4.00;;;15.00;91.20;;;;;;4797213;29;20051;-82
2021/10/14 14:44:32;;;;;;;7.47;3.70;;;15.00;91.10;;;;;;4790582;29;20083;-86
2021/10/14 14:46:58;;;;;;;7.63;3.22;;;15.00;91.20;;;;;;4794051;29;20145;-87
2021/10/14 14:49:24;;;;;;;6.95;3.75;;;15.00;90.80;;;;;;4805045;29;20102;-87
2021/10/14 14:51:51;;;;;;;7.32;4.38;;;15.00;90.70;;;;;;4805912;29;20062;-87
2021/10/14 14:54:16;;;;;;;7.30;3.47;;;15.00;91.00;;;;;;4822175;29;20057;-87
2021/10/14 14:56:42;;;;;;;6.70;3.42;;;15.10;91.00;;;;;;4797310;29;20832;-87
2021/10/14 14:59:07;;;;;;;6.30;3.20;;;15.00;90.90;;;;;;4806700;29;20047;-86
2021/10/14 15:01:35;;;;;;;6.13;2.53;;;15.00;90.70;;;;;;4790648;29;20066;-85
2021/10/14 15:04:01;;;;;;;6.07;2.80;;;15.00;90.50;;;;;;4791054;29;20054;-84
2021/10/14 15:06:27;;;;;;;5.55;2.55;;;15.00;90.60;;;;;;4790442;29;20039;-84
2021/10/14 15:08:53;;;;;;;8.00;2.60;;;15.00;90.70;;;;;;4790291;29;20059;-85
2021/10/14 15:11:20;;;;;;;6.72;2.40;;;15.00;90.80;;;;;;4789716;29;20047;-86
2021/10/14 15:13:48;;;;;;;5.60;2.15;;;14.90;90.70;;;;;;4791122;29;20081;-86
2021/10/14 15:55:26;;;;;;;4.47;1.80;;;14.60;91.40;;;;;;4799628;29;20066;-88
2021/10/14 16:12:52;;;;;;;;;;;;;;;;;;;;;
2021/10/14 16:20:24;;;;;;;6.55;3.40;;;14.50;91.90;;;;;;4698015;30;20088;-86
2021/10/14 16:23:24;;;;;;;6.07;2.40;;;14.50;91.90;;;;;;4702582;30;20564;-87
2021/10/14 16:25:58;;;;;;;4.82;2.05;;;14.40;92.20;;;;;;4695041;30;20509;-86
2021/10/14 16:28:24;;;;;;;6.90;2.60;;;14.40;92.20;;;;;;4694979;30;20096;-85
2021/10/14 16:31:00;;;;;;;7.13;3.33;;;14.50;92.10;;;;;;4739813;30;20064;-86
2021/10/14 16:34:28;;;;;;;7.47;2.70;;;14.50;92.10;;;;;;5157860;24;20440;-84
2021/10/14 16:36:56;;;;;;;6.20;2.72;;;14.40;91.90;;;;;;4804139;29;20064;-86
2021/10/14 16:39:44;;;;;;;6.93;2.33;;;14.50;92.40;;;;;;4806947;29;20054;-87
2021/10/14 16:42:43;;;;;;;6.53;2.40;;;14.40;92.20;;;;;;4805929;29;20118;-92